sensor_id;sensor_type;location;lat;lon;timestamp;pressure;altitude;pressure_sealevel;temperature;humidity
21547;BME280;41275;51.912;4.388;2023-03-18T00:02:05;100744.72;;;17.96;48.37
21547;BME280;41275;51.912;4.388;2023-03-18T00:07:26;100736.69;;;17.96;48.48
21547;BME280;41275;51.912;4.388;2023-03-18T00:12:48;100739.81;;;18.03;48.22
21547;BME280;41275;51.912;4.388;2023-03-18T00:18:09;100740.31;;;18.10;47.88
21547;BME280;41275;51.912;4.388;2023-03-18T00:23:31;100736.81;;;18.15;48.13
21547;BME280;41275;51.912;4.388;2023-03-18T00:28:55;100739.47;;;18.20;47.64
21547;BME280;41275;51.912;4.388;2023-03-18T00:34:17;100739.72;;;18.24;47.57
21547;BME280;41275;51.912;4.388;2023-03-18T00:39:38;100731.88;;;18.27;47.50
21547;BME280;41275;51.912;4.388;2023-03-18T00:45:08;100745.28;;;18.27;47.28
21547;BME280;41275;51.912;4.388;2023-03-18T00:50:30;100737.84;;;18.19;47.53
21547;BME280;41275;51.912;4.388;2023-03-18T00:55:52;100739.22;;;18.17;47.35
21547;BME280;41275;51.912;4.388;2023-03-18T01:01:14;100746.47;;;18.16;47.48
21547;BME280;41275;51.912;4.388;2023-03-18T01:06:38;100742.75;;;18.07;47.55
21547;BME280;41275;51.912;4.388;2023-03-18T01:11:59;100742.19;;;18.10;48.02
21547;BME280;41275;51.912;4.388;2023-03-18T01:17:20;100744.38;;;18.08;47.75
21547;BME280;41275;51.912;4.388;2023-03-18T01:22:42;100754.25;;;18.07;47.80
21547;BME280;41275;51.912;4.388;2023-03-18T01:28:04;100748.44;;;18.00;48.16
21547;BME280;41275;51.912;4.388;2023-03-18T01:33:26;100747.63;;;18.00;48.09
21547;BME280;41275;51.912;4.388;2023-03-18T01:38:49;100738.78;;;17.99;48.31
21547;BME280;41275;51.912;4.388;2023-03-18T01:44:16;100745.50;;;17.97;47.89
21547;BME280;41275;51.912;4.388;2023-03-18T01:49:40;100744.44;;;17.98;48.19
21547;BME280;41275;51.912;4.388;2023-03-18T01:55:06;100743.88;;;18.01;48.28
21547;BME280;41275;51.912;4.388;2023-03-18T02:00:28;100746.25;;;18.02;47.91
21547;BME280;41275;51.912;4.388;2023-03-18T02:05:50;100754.84;;;18.04;48.08
21547;BME280;41275;51.912;4.388;2023-03-18T02:11:12;100758.56;;;18.08;48.08
21547;BME280;41275;51.912;4.388;2023-03-18T02:16:39;100742.75;;;18.12;48.30
21547;BME280;41275;51.912;4.388;2023-03-18T02:27:35;100762.78;;;18.20;47.78
21547;BME280;41275;51.912;4.388;2023-03-18T02:32:58;100758.72;;;18.22;47.84
21547;BME280;41275;51.912;4.388;2023-03-18T02:38:20;100751.72;;;18.26;47.83
21547;BME280;41275;51.912;4.388;2023-03-18T02:43:41;100756.47;;;18.34;48.21
21547;BME280;41275;51.912;4.388;2023-03-18T02:49:05;100755.94;;;18.37;47.90
21547;BME280;41275;51.912;4.388;2023-03-18T02:54:29;100767.72;;;18.36;48.47
21547;BME280;41275;51.912;4.388;2023-03-18T02:59:50;100760.19;;;18.38;48.14
21547;BME280;41275;51.912;4.388;2023-03-18T03:05:11;100754.59;;;18.40;48.38
21547;BME280;41275;51.912;4.388;2023-03-18T03:10:33;100758.78;;;18.51;48.29
21547;BME280;41275;51.912;4.388;2023-03-18T03:15:54;100776.16;;;18.59;48.45
21547;BME280;41275;51.912;4.388;2023-03-18T03:21:15;100776.94;;;18.59;48.37
21547;BME280;41275;51.912;4.388;2023-03-18T03:26:37;100791.44;;;18.53;48.74
21547;BME280;41275;51.912;4.388;2023-03-18T03:31:58;100791.81;;;18.42;48.89
21547;BME280;41275;51.912;4.388;2023-03-18T03:37:19;100794.56;;;18.31;49.09
21547;BME280;41275;51.912;4.388;2023-03-18T03:42:42;100790.06;;;18.22;49.68
21547;BME280;41275;51.912;4.388;2023-03-18T03:48:03;100790.34;;;18.20;49.59
21547;BME280;41275;51.912;4.388;2023-03-18T03:53:25;100784.75;;;18.17;49.96
21547;BME280;41275;51.912;4.388;2023-03-18T03:58:46;100792.25;;;18.20;49.79
21547;BME280;41275;51.912;4.388;2023-03-18T04:04:07;100786.88;;;18.14;50.15
21547;BME280;41275;51.912;4.388;2023-03-18T04:09:28;100787.97;;;18.13;50.25
21547;BME280;41275;51.912;4.388;2023-03-18T04:14:50;100786.09;;;18.14;50.28
21547;BME280;41275;51.912;4.388;2023-03-18T04:20:12;100811.00;;;18.14;50.32
21547;BME280;41275;51.912;4.388;2023-03-18T04:25:33;100826.31;;;18.09;50.29
21547;BME280;41275;51.912;4.388;2023-03-18T04:30:55;100829.00;;;18.04;50.59
21547;BME280;41275;51.912;4.388;2023-03-18T04:36:16;100839.47;;;17.95;50.60
21547;BME280;41275;51.912;4.388;2023-03-18T04:41:37;100839.25;;;17.86;51.17
21547;BME280;41275;51.912;4.388;2023-03-18T04:46:59;100852.66;;;17.81;51.07
21547;BME280;41275;51.912;4.388;2023-03-18T04:52:21;100856.69;;;17.79;51.34
21547;BME280;41275;51.912;4.388;2023-03-18T04:57:42;100844.91;;;17.80;50.86
21547;BME280;41275;51.912;4.388;2023-03-18T05:03:04;100843.53;;;17.93;51.21
21547;BME280;41275;51.912;4.388;2023-03-18T05:08:25;100846.13;;;18.08;51.41
21547;BME280;41275;51.912;4.388;2023-03-18T05:13:47;100850.88;;;18.21;51.15
21547;BME280;41275;51.912;4.388;2023-03-18T05:19:09;100848.69;;;18.28;51.09
21547;BME280;41275;51.912;4.388;2023-03-18T05:24:30;100851.38;;;18.28;51.27
21547;BME280;41275;51.912;4.388;2023-03-18T05:29:51;100847.91;;;18.28;50.98
21547;BME280;41275;51.912;4.388;2023-03-18T05:35:13;100842.53;;;18.28;50.93
21547;BME280;41275;51.912;4.388;2023-03-18T05:40:34;100823.56;;;18.19;50.83
21547;BME280;41275;51.912;4.388;2023-03-18T05:45:56;100826.41;;;17.88;51.64
21547;BME280;41275;51.912;4.388;2023-03-18T05:51:18;100841.44;;;17.64;51.44
21547;BME280;41275;51.912;4.388;2023-03-18T05:56:40;100840.72;;;17.43;51.96
21547;BME280;41275;51.912;4.388;2023-03-18T06:02:05;100841.00;;;17.21;52.02
21547;BME280;41275;51.912;4.388;2023-03-18T06:07:26;100855.22;;;17.11;52.21
21547;BME280;41275;51.912;4.388;2023-03-18T06:12:49;100874.19;;;17.05;52.78
21547;BME280;41275;51.912;4.388;2023-03-18T06:18:11;100883.00;;;17.05;52.88
21547;BME280;41275;51.912;4.388;2023-03-18T06:23:32;100879.81;;;17.18;52.74
21547;BME280;41275;51.912;4.388;2023-03-18T06:28:54;100886.50;;;17.26;53.04
21547;BME280;41275;51.912;4.388;2023-03-18T06:34:16;100891.28;;;17.24;52.94
21547;BME280;41275;51.912;4.388;2023-03-18T06:39:37;100893.72;;;17.26;53.16
21547;BME280;41275;51.912;4.388;2023-03-18T06:44:58;100903.34;;;17.27;53.46
21547;BME280;41275;51.912;4.388;2023-03-18T06:50:20;100906.78;;;17.32;53.61
21547;BME280;41275;51.912;4.388;2023-03-18T06:55:42;100904.91;;;17.43;53.21
21547;BME280;41275;51.912;4.388;2023-03-18T07:01:03;100912.66;;;17.45;53.60
21547;BME280;41275;51.912;4.388;2023-03-18T07:06:28;100915.88;;;17.52;53.45
21547;BME280;41275;51.912;4.388;2023-03-18T07:11:52;100914.00;;;17.57;53.61
21547;BME280;41275;51.912;4.388;2023-03-18T07:17:14;100909.97;;;17.60;53.32
21547;BME280;41275;51.912;4.388;2023-03-18T07:22:35;100923.34;;;17.70;53.40
21547;BME280;41275;51.912;4.388;2023-03-18T07:27:57;100912.91;;;17.79;53.27
21547;BME280;41275;51.912;4.388;2023-03-18T07:33:20;100922.47;;;17.95;53.04
21547;BME280;41275;51.912;4.388;2023-03-18T07:38:41;100926.19;;;18.09;52.83
21547;BME280;41275;51.912;4.388;2023-03-18T07:44:03;100935.22;;;18.29;52.09
21547;BME280;41275;51.912;4.388;2023-03-18T07:49:24;100947.81;;;19.22;51.75
21547;BME280;41275;51.912;4.388;2023-03-18T07:54:45;100941.06;;;20.07;49.61
21547;BME280;41275;51.912;4.388;2023-03-18T08:00:09;100936.56;;;19.78;48.76
21547;BME280;41275;51.912;4.388;2023-03-18T08:05:31;100939.38;;;19.34;49.06
21547;BME280;41275;51.912;4.388;2023-03-18T08:10:57;100940.56;;;19.18;49.31
21547;BME280;41275;51.912;4.388;2023-03-18T08:16:19;100934.16;;;19.13;49.02
21547;BME280;41275;51.912;4.388;2023-03-18T08:21:41;100941.19;;;19.09;49.51
21547;BME280;41275;51.912;4.388;2023-03-18T08:27:04;100951.19;;;19.33;49.33
21547;BME280;41275;51.912;4.388;2023-03-18T08:32:25;100962.94;;;19.37;49.05
21547;BME280;41275;51.912;4.388;2023-03-18T08:37:47;100974.97;;;19.45;48.76
21547;BME280;41275;51.912;4.388;2023-03-18T08:43:10;100977.81;;;19.58;48.90
21547;BME280;41275;51.912;4.388;2023-03-18T08:48:32;100995.97;;;19.72;48.51
21547;BME280;41275;51.912;4.388;2023-03-18T08:53:53;101000.59;;;19.66;47.64
21547;BME280;41275;51.912;4.388;2023-03-18T08:59:15;100990.81;;;19.75;48.38
21547;BME280;41275;51.912;4.388;2023-03-18T09:04:37;100988.56;;;20.11;47.73
21547;BME280;41275;51.912;4.388;2023-03-18T09:09:59;100990.81;;;20.47;47.45
21547;BME280;41275;51.912;4.388;2023-03-18T09:15:20;100987.47;;;20.37;46.36
21547;BME280;41275;51.912;4.388;2023-03-18T09:20:42;100987.72;;;20.16;46.75
21547;BME280;41275;51.912;4.388;2023-03-18T09:26:05;100996.00;;;20.44;46.80
21547;BME280;41275;51.912;4.388;2023-03-18T09:31:26;100987.19;;;20.81;46.42
21547;BME280;41275;51.912;4.388;2023-03-18T09:36:47;100985.53;;;21.18;45.26
21547;BME280;41275;51.912;4.388;2023-03-18T09:42:27;100987.63;;;21.07;45.14
21547;BME280;41275;51.912;4.388;2023-03-18T09:53:51;100991.78;;;21.32;44.68
21547;BME280;41275;51.912;4.388;2023-03-18T09:59:20;100993.69;;;21.50;44.41
21547;BME280;41275;51.912;4.388;2023-03-18T10:04:48;100999.88;;;21.65;43.91
21547;BME280;41275;51.912;4.388;2023-03-18T10:10:21;100987.06;;;21.89;43.23
21547;BME280;41275;51.912;4.388;2023-03-18T10:15:51;101003.22;;;22.03;43.14
21547;BME280;41275;51.912;4.388;2023-03-18T10:21:24;100999.22;;;22.00;43.10
21547;BME280;41275;51.912;4.388;2023-03-18T10:27:09;101013.03;;;22.26;42.46
21547;BME280;41275;51.912;4.388;2023-03-18T10:32:47;101019.75;;;22.29;42.56
21547;BME280;41275;51.912;4.388;2023-03-18T10:38:23;101010.09;;;21.95;42.26
21547;BME280;41275;51.912;4.388;2023-03-18T10:43:48;101017.03;;;21.69;42.64
21547;BME280;41275;51.912;4.388;2023-03-18T10:49:20;101021.88;;;21.53;43.10
21547;BME280;41275;51.912;4.388;2023-03-18T10:54:45;101019.47;;;21.19;43.41
21547;BME280;41275;51.912;4.388;2023-03-18T11:00:25;101025.97;;;20.75;44.04
21547;BME280;41275;51.912;4.388;2023-03-18T11:05:48;101024.34;;;20.79;44.83
21547;BME280;41275;51.912;4.388;2023-03-18T11:11:14;101016.28;;;20.79;45.39
21547;BME280;41275;51.912;4.388;2023-03-18T11:27:38;100989.25;;;21.73;44.85
21547;BME280;41275;51.912;4.388;2023-03-18T11:33:14;100979.03;;;22.17;44.04
21547;BME280;41275;51.912;4.388;2023-03-18T11:38:36;100989.66;;;22.49;42.87
21547;BME280;41275;51.912;4.388;2023-03-18T11:44:01;100998.94;;;22.43;42.29
21547;BME280;41275;51.912;4.388;2023-03-18T11:49:24;100999.22;;;23.06;42.08
21547;BME280;41275;51.912;4.388;2023-03-18T12:06:21;100998.06;;;23.20;40.12
21547;BME280;41275;51.912;4.388;2023-03-18T12:29:30;100988.50;;;23.90;38.52
21547;BME280;41275;51.912;4.388;2023-03-18T12:46:34;100981.53;;;24.07;37.53
21547;BME280;41275;51.912;4.388;2023-03-18T12:52:07;100969.91;;;23.97;36.89
21547;BME280;41275;51.912;4.388;2023-03-18T12:57:38;100965.59;;;24.45;36.96
21547;BME280;41275;51.912;4.388;2023-03-18T13:03:33;100961.19;;;26.04;35.63
21547;BME280;41275;51.912;4.388;2023-03-18T13:09:06;100960.34;;;27.37;33.30
21547;BME280;41275;51.912;4.388;2023-03-18T13:14:41;100949.34;;;27.34;32.27
21547;BME280;41275;51.912;4.388;2023-03-18T13:20:14;100945.41;;;26.56;33.53
21547;BME280;41275;51.912;4.388;2023-03-18T13:26:00;100965.81;;;27.62;32.76
21547;BME280;41275;51.912;4.388;2023-03-18T13:31:47;100951.94;;;29.21;30.42
21547;BME280;41275;51.912;4.388;2023-03-18T13:43:13;100937.69;;;30.62;26.40
21547;BME280;41275;51.912;4.388;2023-03-18T13:48:39;100937.88;;;30.92;25.91
21547;BME280;41275;51.912;4.388;2023-03-18T13:54:03;100923.72;;;29.29;26.71
21547;BME280;41275;51.912;4.388;2023-03-18T14:04:54;100915.31;;;30.37;27.60
21547;BME280;41275;51.912;4.388;2023-03-18T14:10:18;100916.31;;;31.29;26.41
21547;BME280;41275;51.912;4.388;2023-03-18T14:15:43;100913.97;;;30.11;26.80
21547;BME280;41275;51.912;4.388;2023-03-18T14:21:05;100918.84;;;27.98;28.54
21547;BME280;41275;51.912;4.388;2023-03-18T14:38:21;100901.31;;;26.80;31.20
21547;BME280;41275;51.912;4.388;2023-03-18T14:54:53;100889.88;;;25.82;32.45
21547;BME280;41275;51.912;4.388;2023-03-18T15:00:16;100882.63;;;25.57;33.06
21547;BME280;41275;51.912;4.388;2023-03-18T15:05:39;100878.84;;;25.87;32.71
21547;BME280;41275;51.912;4.388;2023-03-18T15:11:02;100872.19;;;26.27;32.40
21547;BME280;41275;51.912;4.388;2023-03-18T15:16:30;100865.88;;;25.63;32.51
21547;BME280;41275;51.912;4.388;2023-03-18T15:21:54;100857.78;;;25.16;33.42
21547;BME280;41275;51.912;4.388;2023-03-18T15:27:18;100855.91;;;25.00;33.88
21547;BME280;41275;51.912;4.388;2023-03-18T15:32:48;100844.34;;;24.64;33.99
21547;BME280;41275;51.912;4.388;2023-03-18T15:38:16;100844.78;;;24.23;34.76
21547;BME280;41275;51.912;4.388;2023-03-18T15:43:46;100840.63;;;23.91;34.99
21547;BME280;41275;51.912;4.388;2023-03-18T15:49:09;100849.38;;;23.96;35.14
21547;BME280;41275;51.912;4.388;2023-03-18T15:54:38;100848.16;;;24.37;34.88
21547;BME280;41275;51.912;4.388;2023-03-18T15:59:59;100837.97;;;24.43;34.79
21547;BME280;41275;51.912;4.388;2023-03-18T16:05:24;100840.81;;;24.29;34.70
21547;BME280;41275;51.912;4.388;2023-03-18T16:10:48;100832.69;;;24.12;35.07
21547;BME280;41275;51.912;4.388;2023-03-18T16:16:25;100836.78;;;23.83;35.46
21547;BME280;41275;51.912;4.388;2023-03-18T16:21:47;100841.31;;;23.57;36.04
21547;BME280;41275;51.912;4.388;2023-03-18T16:27:35;100843.63;;;23.41;36.24
21547;BME280;41275;51.912;4.388;2023-03-18T16:32:57;100842.13;;;23.26;36.66
21547;BME280;41275;51.912;4.388;2023-03-18T16:38:19;100836.53;;;23.14;36.85
21547;BME280;41275;51.912;4.388;2023-03-18T16:43:40;100838.88;;;23.07;37.11
21547;BME280;41275;51.912;4.388;2023-03-18T16:49:03;100841.69;;;23.01;36.87
21547;BME280;41275;51.912;4.388;2023-03-18T16:54:27;100846.63;;;22.99;37.14
21547;BME280;41275;51.912;4.388;2023-03-18T16:59:51;100849.75;;;22.93;37.40
21547;BME280;41275;51.912;4.388;2023-03-18T17:05:15;100848.25;;;22.87;37.14
21547;BME280;41275;51.912;4.388;2023-03-18T17:10:37;100855.53;;;22.86;36.75
21547;BME280;41275;51.912;4.388;2023-03-18T17:15:59;100853.59;;;22.78;36.69
21547;BME280;41275;51.912;4.388;2023-03-18T17:21:21;100850.91;;;22.78;36.41
21547;BME280;41275;51.912;4.388;2023-03-18T17:26:43;100857.97;;;22.65;36.28
21547;BME280;41275;51.912;4.388;2023-03-18T17:32:04;100872.97;;;22.58;36.34
21547;BME280;41275;51.912;4.388;2023-03-18T17:37:25;100873.38;;;22.51;37.26
21547;BME280;41275;51.912;4.388;2023-03-18T17:42:49;100858.66;;;22.35;38.21
21547;BME280;41275;51.912;4.388;2023-03-18T17:48:22;100869.44;;;22.35;39.06
21547;BME280;41275;51.912;4.388;2023-03-18T17:53:47;100880.75;;;22.37;39.94
21547;BME280;41275;51.912;4.388;2023-03-18T17:59:13;100926.78;;;22.13;39.90
21547;BME280;41275;51.912;4.388;2023-03-18T18:04:35;100913.47;;;20.82;41.73
21547;BME280;41275;51.912;4.388;2023-03-18T18:09:58;100907.53;;;20.23;43.47
21547;BME280;41275;51.912;4.388;2023-03-18T18:15:23;100915.19;;;20.16;45.20
21547;BME280;41275;51.912;4.388;2023-03-18T18:20:49;100906.19;;;20.26;45.85
21547;BME280;41275;51.912;4.388;2023-03-18T18:26:17;100901.16;;;20.38;46.00
21547;BME280;41275;51.912;4.388;2023-03-18T18:31:45;100917.13;;;20.53;46.29
21547;BME280;41275;51.912;4.388;2023-03-18T18:37:06;100921.41;;;20.54;45.85
21547;BME280;41275;51.912;4.388;2023-03-18T18:42:28;100900.78;;;20.50;46.06
21547;BME280;41275;51.912;4.388;2023-03-18T18:47:49;100912.19;;;20.61;45.76
21547;BME280;41275;51.912;4.388;2023-03-18T18:53:19;100936.88;;;20.63;45.75
21547;BME280;41275;51.912;4.388;2023-03-18T18:58:41;100951.28;;;20.29;45.83
21547;BME280;41275;51.912;4.388;2023-03-18T19:04:02;100942.63;;;20.13;46.26
21547;BME280;41275;51.912;4.388;2023-03-18T19:09:25;100933.06;;;20.02;46.58
21547;BME280;41275;51.912;4.388;2023-03-18T19:14:46;100942.34;;;19.91;46.81
21547;BME280;41275;51.912;4.388;2023-03-18T19:20:28;100931.41;;;19.82;47.24
21547;BME280;41275;51.912;4.388;2023-03-18T19:25:50;100941.94;;;19.78;47.64
21547;BME280;41275;51.912;4.388;2023-03-18T19:31:22;100946.28;;;19.74;47.94
21547;BME280;41275;51.912;4.388;2023-03-18T19:36:46;100945.13;;;19.80;48.22
21547;BME280;41275;51.912;4.388;2023-03-18T19:42:12;100946.09;;;19.90;48.29
21547;BME280;41275;51.912;4.388;2023-03-18T19:47:33;100944.72;;;19.92;47.82
21547;BME280;41275;51.912;4.388;2023-03-18T19:52:54;100940.97;;;19.93;47.50
21547;BME280;41275;51.912;4.388;2023-03-18T19:58:22;100958.16;;;19.92;47.83
21547;BME280;41275;51.912;4.388;2023-03-18T20:03:53;100968.72;;;19.83;47.19
21547;BME280;41275;51.912;4.388;2023-03-18T20:09:15;100968.53;;;19.75;47.44
21547;BME280;41275;51.912;4.388;2023-03-18T20:14:37;100957.81;;;19.75;47.58
21547;BME280;41275;51.912;4.388;2023-03-18T20:19:59;100962.00;;;19.86;47.76
21547;BME280;41275;51.912;4.388;2023-03-18T20:25:25;100963.91;;;19.80;47.65
21547;BME280;41275;51.912;4.388;2023-03-18T20:30:49;100977.34;;;19.80;47.69
21547;BME280;41275;51.912;4.388;2023-03-18T20:36:16;100988.19;;;19.70;47.90
21547;BME280;41275;51.912;4.388;2023-03-18T20:41:37;100995.50;;;19.59;48.26
21547;BME280;41275;51.912;4.388;2023-03-18T20:46:59;100988.88;;;19.52;48.51
21547;BME280;41275;51.912;4.388;2023-03-18T20:52:28;100992.09;;;19.54;48.95
21547;BME280;41275;51.912;4.388;2023-03-18T20:57:50;100989.59;;;19.63;49.20
21547;BME280;41275;51.912;4.388;2023-03-18T21:03:25;100992.00;;;19.64;49.35
21547;BME280;41275;51.912;4.388;2023-03-18T21:08:47;100996.31;;;19.65;49.62
21547;BME280;41275;51.912;4.388;2023-03-18T21:14:13;100996.13;;;19.51;49.72
21547;BME280;41275;51.912;4.388;2023-03-18T21:19:34;100992.13;;;19.15;49.84
21547;BME280;41275;51.912;4.388;2023-03-18T21:24:56;100988.50;;;18.90;49.93
21547;BME280;41275;51.912;4.388;2023-03-18T21:30:18;100983.25;;;18.75;50.37
21547;BME280;41275;51.912;4.388;2023-03-18T21:35:41;100998.81;;;18.73;50.26
21547;BME280;41275;51.912;4.388;2023-03-18T21:41:02;100984.06;;;18.70;50.49
21547;BME280;41275;51.912;4.388;2023-03-18T21:46:24;100997.72;;;18.74;50.53
21547;BME280;41275;51.912;4.388;2023-03-18T21:51:46;100999.56;;;18.78;50.47
21547;BME280;41275;51.912;4.388;2023-03-18T21:57:26;100995.63;;;18.60;50.74
21547;BME280;41275;51.912;4.388;2023-03-18T22:02:47;100995.66;;;18.55;51.19
21547;BME280;41275;51.912;4.388;2023-03-18T22:08:09;100997.75;;;18.63;51.46
21547;BME280;41275;51.912;4.388;2023-03-18T22:13:30;101004.19;;;18.68;51.37
21547;BME280;41275;51.912;4.388;2023-03-18T22:18:53;100999.91;;;18.72;51.16
21547;BME280;41275;51.912;4.388;2023-03-18T22:24:14;100999.06;;;18.66;51.35
21547;BME280;41275;51.912;4.388;2023-03-18T22:29:35;100984.88;;;18.65;51.43
21547;BME280;41275;51.912;4.388;2023-03-18T22:34:56;100977.91;;;18.64;51.34
21547;BME280;41275;51.912;4.388;2023-03-18T22:40:26;100979.25;;;18.62;51.74
21547;BME280;41275;51.912;4.388;2023-03-18T22:45:48;100986.00;;;18.59;51.45
21547;BME280;41275;51.912;4.388;2023-03-18T22:51:22;100980.38;;;18.51;51.50
21547;BME280;41275;51.912;4.388;2023-03-18T22:56:44;100980.69;;;18.39;51.95
21547;BME280;41275;51.912;4.388;2023-03-18T23:02:12;100981.53;;;18.34;52.11
21547;BME280;41275;51.912;4.388;2023-03-18T23:07:33;100985.84;;;18.30;52.59
21547;BME280;41275;51.912;4.388;2023-03-18T23:12:55;100987.72;;;18.30;52.81
21547;BME280;41275;51.912;4.388;2023-03-18T23:18:17;100985.84;;;18.35;52.74
21547;BME280;41275;51.912;4.388;2023-03-18T23:23:39;100990.91;;;18.37;52.92
21547;BME280;41275;51.912;4.388;2023-03-18T23:29:00;100987.16;;;18.43;52.82
21547;BME280;41275;51.912;4.388;2023-03-18T23:34:22;100997.88;;;18.43;52.79
21547;BME280;41275;51.912;4.388;2023-03-18T23:39:43;100984.97;;;18.45;52.74
21547;BME280;41275;51.912;4.388;2023-03-18T23:45:06;100992.50;;;18.43;53.07
21547;BME280;41275;51.912;4.388;2023-03-18T23:50:28;100992.22;;;18.45;53.10
21547;BME280;41275;51.912;4.388;2023-03-18T23:55:49;101006.66;;;18.49;52.90
